createdAt,value
2016-10-10T00:00:19.093Z,0
2016-10-10T00:01:28.765Z,0
2016-10-10T00:02:39.050Z,0
2016-10-10T00:03:49.020Z,0
2016-10-10T00:04:59.565Z,0
2016-10-10T00:06:09.851Z,0
2016-10-10T00:07:20.143Z,0
2016-10-10T00:08:30.427Z,0
2016-10-10T00:09:40.392Z,0
2016-10-10T00:10:50.679Z,0
2016-10-10T00:12:00.970Z,0
2016-10-10T00:13:10.946Z,0
2016-10-10T00:14:20.928Z,0
2016-10-10T00:15:31.200Z,0
2016-10-10T00:16:41.492Z,0
2016-10-10T00:17:51.781Z,0
2016-10-10T00:19:02.075Z,0
2016-10-10T00:20:12.054Z,0
2016-10-10T00:21:22.345Z,0
2016-10-10T00:22:32.645Z,0
2016-10-10T00:23:42.923Z,0
2016-10-10T00:24:52.908Z,0
2016-10-10T00:26:03.195Z,0
2016-10-10T00:27:13.482Z,0
2016-10-10T00:28:23.465Z,0
2016-10-10T00:29:33.760Z,0
2016-10-10T00:30:44.063Z,0
2016-10-10T00:31:54.365Z,0
2016-10-10T00:33:04.346Z,0
2016-10-10T00:34:14.640Z,0
2016-10-10T00:35:24.319Z,0
2016-10-10T00:36:34.596Z,0
2016-10-10T00:37:44.568Z,0
2016-10-10T00:38:54.846Z,0
2016-10-10T00:40:05.122Z,0
2016-10-10T00:41:15.113Z,0
2016-10-10T00:42:25.410Z,0
2016-10-10T00:43:35.694Z,0
2016-10-10T00:44:45.970Z,0
2016-10-10T00:45:55.947Z,0
2016-10-10T00:47:06.236Z,0
2016-10-10T00:48:16.516Z,0
2016-10-10T00:49:26.796Z,0
2016-10-10T00:50:36.769Z,0
2016-10-10T00:51:47.074Z,0
2016-10-10T00:52:57.045Z,0
2016-10-10T00:54:07.329Z,0
2016-10-10T00:55:17.618Z,0
2016-10-10T00:56:27.597Z,0
2016-10-10T00:57:37.883Z,0
2016-10-10T00:58:48.185Z,0
2016-10-10T00:59:58.462Z,0
2016-10-10T01:01:08.733Z,0
2016-10-10T01:02:19.030Z,0
2016-10-10T01:03:29.318Z,0
2016-10-10T01:04:39.609Z,0
2016-10-10T01:05:49.915Z,0
2016-10-10T01:07:00.212Z,0
2016-10-10T01:08:10.184Z,0
2016-10-10T01:09:20.491Z,0
2016-10-10T01:10:30.789Z,0
2016-10-10T01:11:41.070Z,0
2016-10-10T01:12:51.041Z,0
2016-10-10T01:14:01.317Z,0
2016-10-10T01:15:10.988Z,0
2016-10-10T01:16:21.274Z,0
2016-10-10T01:17:31.572Z,0
2016-10-10T01:18:41.550Z,0
2016-10-10T01:19:51.845Z,0
2016-10-10T01:21:02.137Z,0
2016-10-10T01:22:12.451Z,0
2016-10-10T01:23:22.734Z,0
2016-10-10T01:24:32.713Z,0
2016-10-10T01:25:42.677Z,0
2016-10-10T01:26:52.666Z,0
2016-10-10T01:28:02.957Z,0
2016-10-10T01:29:12.938Z,0
2016-10-10T01:30:23.224Z,0
2016-10-10T01:31:33.518Z,0
2016-10-10T01:32:43.814Z,0
2016-10-10T01:33:54.120Z,0
2016-10-10T01:35:04.113Z,0
2016-10-10T01:36:14.395Z,0
2016-10-10T01:37:24.679Z,0
2016-10-10T01:38:34.949Z,0
2016-10-10T01:39:45.260Z,0
2016-10-10T01:40:55.252Z,0
2016-10-10T01:42:05.233Z,0
2016-10-10T01:43:15.516Z,0
2016-10-10T01:44:25.826Z,0
2016-10-10T01:45:36.109Z,0
2016-10-10T01:46:46.390Z,0
2016-10-10T01:47:56.671Z,0
2016-10-10T01:49:06.977Z,0
2016-10-10T01:50:16.654Z,0
2016-10-10T01:51:26.927Z,0
2016-10-10T01:52:37.219Z,0
2016-10-10T01:53:47.510Z,0
2016-10-10T01:54:57.804Z,0
2016-10-10T01:56:07.782Z,0
2016-10-10T01:57:17.750Z,0
2016-10-10T01:58:27.721Z,0
2016-10-10T01:59:37.377Z,0
2016-10-10T02:00:47.354Z,0
2016-10-10T02:01:57.035Z,0
2016-10-10T02:03:07.317Z,0
2016-10-10T02:04:17.600Z,0
2016-10-10T02:05:27.886Z,0
2016-10-10T02:06:37.554Z,0
2016-10-10T02:07:47.555Z,0
2016-10-10T02:08:57.243Z,0
2016-10-10T02:10:07.530Z,0
2016-10-10T02:11:17.806Z,0
2016-10-10T02:12:27.777Z,0
2016-10-10T02:13:38.057Z,0
2016-10-10T02:14:48.354Z,0
2016-10-10T02:15:58.661Z,0
2016-10-10T02:17:08.018Z,0
2016-10-10T02:18:18.300Z,0
2016-10-10T02:19:27.673Z,0
2016-10-10T02:20:37.983Z,0
2016-10-10T02:21:48.274Z,0
2016-10-10T02:22:58.558Z,0
2016-10-10T02:24:08.553Z,0
2016-10-10T02:25:18.835Z,0
2016-10-10T02:26:29.131Z,0
2016-10-10T02:27:39.115Z,0
2016-10-10T02:28:49.436Z,0
2016-10-10T02:29:59.712Z,0
2016-10-10T02:31:09.985Z,0
2016-10-10T02:32:20.271Z,0
2016-10-10T02:33:30.554Z,0
2016-10-10T02:34:40.849Z,0
2016-10-10T02:35:50.836Z,0
2016-10-10T02:37:01.153Z,0
2016-10-10T02:38:11.127Z,0
2016-10-10T02:39:21.651Z,0
2016-10-10T02:40:31.927Z,0
2016-10-10T02:41:41.906Z,0
2016-10-10T02:42:51.885Z,0
2016-10-10T02:44:01.870Z,0
2016-10-10T02:45:11.857Z,0
2016-10-10T02:46:21.527Z,0
2016-10-10T02:47:31.504Z,0
2016-10-10T02:48:41.481Z,0
2016-10-10T02:49:51.775Z,0
2016-10-10T02:51:02.098Z,0
2016-10-10T02:52:12.389Z,0
2016-10-10T02:53:22.918Z,0
2016-10-10T02:54:33.199Z,0
2016-10-10T02:55:43.179Z,0
2016-10-10T02:56:53.475Z,0
2016-10-10T02:58:03.757Z,0
2016-10-10T02:59:14.030Z,0
2016-10-10T03:00:23.991Z,0
2016-10-10T03:01:33.959Z,0
2016-10-10T03:33:09.280Z,0
2016-10-10T03:34:19.575Z,0
2016-10-10T03:35:29.841Z,0
2016-10-10T03:36:39.810Z,0
2016-10-10T03:37:50.101Z,0
2016-10-10T03:39:00.072Z,0
2016-10-10T03:40:10.403Z,0
2016-10-10T03:41:20.704Z,0
2016-10-10T03:42:31.033Z,0
2016-10-10T03:43:41.325Z,0
2016-10-10T03:44:51.611Z,0
2016-10-10T03:46:01.912Z,0
2016-10-10T03:47:12.200Z,0
2016-10-10T03:48:22.487Z,0
2016-10-10T03:49:32.778Z,0
2016-10-10T03:50:43.304Z,0
2016-10-10T03:51:53.582Z,0
2016-10-10T03:53:03.862Z,0
2016-10-10T03:54:14.158Z,0
2016-10-10T03:55:24.470Z,0
2016-10-10T03:56:34.758Z,0
2016-10-10T03:57:44.743Z,0
2016-10-10T03:58:55.024Z,0
2016-10-10T04:00:05.542Z,0
2016-10-10T04:01:15.824Z,0
2016-10-10T04:02:25.505Z,0
2016-10-10T04:03:35.798Z,0
2016-10-10T04:04:45.469Z,0
2016-10-10T04:05:55.441Z,0
2016-10-10T04:07:05.716Z,0
2016-10-10T04:08:15.695Z,0
2016-10-10T04:09:25.700Z,0
2016-10-10T04:10:35.982Z,0
2016-10-10T04:11:45.966Z,0
2016-10-10T04:12:56.246Z,0
2016-10-10T04:14:06.539Z,0
2016-10-10T04:15:16.830Z,0
2016-10-10T04:16:26.802Z,0
2016-10-10T04:17:37.097Z,0
2016-10-10T04:18:47.379Z,0
2016-10-10T04:19:57.346Z,0
2016-10-10T04:21:07.638Z,0
2016-10-10T04:22:17.930Z,0
2016-10-10T04:23:27.901Z,0
2016-10-10T04:24:38.192Z,0
2016-10-10T04:25:48.179Z,0
2016-10-10T04:26:58.155Z,0
2016-10-10T04:28:07.818Z,0
2016-10-10T04:29:17.807Z,0
2016-10-10T04:30:28.092Z,0
2016-10-10T04:31:38.383Z,0
2016-10-10T04:32:48.656Z,0
2016-10-10T04:33:58.940Z,0
2016-10-10T04:35:09.223Z,0
2016-10-10T04:36:19.145Z,0
2016-10-10T04:37:28.505Z,0
2016-10-10T04:38:38.488Z,0
2016-10-10T04:39:48.765Z,0
2016-10-10T04:40:59.046Z,0
2016-10-10T04:42:09.334Z,0
2016-10-10T04:43:19.642Z,0
2016-10-10T04:44:29.616Z,0
2016-10-10T04:45:39.610Z,0
2016-10-10T04:46:49.897Z,0
2016-10-10T04:48:00.178Z,0
2016-10-10T04:49:10.474Z,0
2016-10-10T04:50:20.751Z,0
2016-10-10T04:51:30.102Z,0
2016-10-10T04:52:40.399Z,0
2016-10-10T04:53:50.370Z,0
2016-10-10T04:55:00.354Z,0
2016-10-10T04:56:10.653Z,0
2016-10-10T04:57:20.945Z,0
2016-10-10T04:58:31.232Z,0
2016-10-10T04:59:41.524Z,0
2016-10-10T05:00:51.834Z,0
2016-10-10T05:02:02.122Z,0
2016-10-10T05:03:12.104Z,0
2016-10-10T05:04:22.400Z,0
2016-10-10T05:05:32.697Z,0
2016-10-10T05:06:42.065Z,0
2016-10-10T05:07:52.045Z,0
2016-10-10T05:09:01.712Z,0
2016-10-10T05:10:11.693Z,0
2016-10-10T05:11:21.980Z,0
2016-10-10T05:12:32.267Z,0
2016-10-10T05:13:41.938Z,5
2016-10-10T05:14:52.221Z,5
2016-10-10T05:16:01.891Z,5
2016-10-10T05:17:11.858Z,5
2016-10-10T05:18:22.153Z,5
2016-10-10T05:19:32.141Z,5
2016-10-10T05:20:42.115Z,5
2016-10-10T05:21:52.091Z,5
2016-10-10T05:23:02.387Z,5
2016-10-10T05:24:12.374Z,5
2016-10-10T05:25:22.355Z,5
2016-10-10T05:26:32.340Z,5
2016-10-10T05:27:41.690Z,10
2016-10-10T05:28:51.994Z,10
2016-10-10T05:30:01.984Z,10
2016-10-10T05:31:12.279Z,10
2016-10-10T05:32:22.570Z,10
2016-10-10T05:33:32.462Z,10
2016-10-10T05:34:42.445Z,10
2016-10-10T05:35:52.750Z,10
2016-10-10T05:37:02.727Z,15
2016-10-10T05:38:12.723Z,15
2016-10-10T05:39:23.011Z,15
2016-10-10T05:40:33.318Z,15
2016-10-10T05:41:43.296Z,15
2016-10-10T05:42:53.284Z,15
2016-10-10T05:44:03.577Z,20
2016-10-10T05:45:13.873Z,20
2016-10-10T05:46:24.162Z,20
2016-10-10T05:47:34.150Z,20
2016-10-10T05:48:44.448Z,20
2016-10-10T05:49:54.760Z,20
2016-10-10T05:51:05.048Z,20
2016-10-10T05:52:15.334Z,25
2016-10-10T05:53:25.315Z,25
2016-10-10T05:54:35.286Z,25
2016-10-10T05:55:45.288Z,25
2016-10-10T05:56:54.966Z,25
2016-10-10T05:58:05.266Z,25
2016-10-10T05:59:15.537Z,25
2016-10-10T06:00:25.531Z,30
2016-10-10T06:01:35.513Z,30
2016-10-10T06:02:45.180Z,30
2016-10-10T06:03:55.166Z,30
2016-10-10T06:05:05.467Z,30
2016-10-10T06:06:15.444Z,30
2016-10-10T06:07:25.131Z,30
2016-10-10T06:08:34.793Z,30
2016-10-10T06:09:44.764Z,35
2016-10-10T06:10:55.055Z,35
2016-10-10T06:12:05.052Z,35
2016-10-10T06:13:15.343Z,35
2016-10-10T06:14:25.326Z,40
2016-10-10T06:15:35.623Z,40
2016-10-10T06:16:45.899Z,40
2016-10-10T06:17:55.592Z,40
2016-10-10T06:19:05.268Z,40
2016-10-10T06:20:15.560Z,40
2016-10-10T06:21:25.836Z,40
2016-10-10T06:22:35.827Z,40
2016-10-10T06:23:45.791Z,40
2016-10-10T06:24:55.776Z,40
2016-10-10T06:26:05.749Z,40
2016-10-10T06:27:16.035Z,40
2016-10-10T06:28:26.006Z,40
2016-10-10T06:29:36.002Z,35
2016-10-10T06:30:46.289Z,35
2016-10-10T06:31:55.965Z,35
2016-10-10T06:33:05.961Z,35
2016-10-10T06:34:16.250Z,35
2016-10-10T06:35:26.243Z,30
2016-10-10T06:36:36.527Z,30
2016-10-10T06:37:46.194Z,35
2016-10-10T06:38:56.171Z,35
2016-10-10T06:40:06.453Z,35
2016-10-10T06:41:16.731Z,35
2016-10-10T06:42:27.020Z,40
2016-10-10T06:43:37.022Z,40
2016-10-10T06:44:46.676Z,40
2016-10-10T06:45:56.661Z,45
2016-10-10T06:47:06.639Z,50
2016-10-10T06:48:16.917Z,50
2016-10-10T06:49:26.901Z,55
2016-10-10T06:50:37.193Z,55
2016-10-10T06:51:46.859Z,55
2016-10-10T06:52:56.832Z,55
2016-10-10T06:54:06.819Z,55
2016-10-10T06:55:16.798Z,55
2016-10-10T06:56:26.476Z,55
2016-10-10T06:57:36.764Z,55
2016-10-10T06:58:47.050Z,55
2016-10-10T06:59:57.331Z,55
2016-10-10T07:01:06.999Z,55
2016-10-10T07:02:17.305Z,55
2016-10-10T07:03:27.582Z,55
2016-10-10T07:04:36.957Z,50
2016-10-10T07:05:47.241Z,50
2016-10-10T07:06:57.223Z,50
2016-10-10T07:08:07.213Z,45
2016-10-10T07:09:17.190Z,45
2016-10-10T07:10:26.866Z,45
2016-10-10T07:11:37.154Z,40
2016-10-10T07:12:47.456Z,40
2016-10-10T07:13:57.749Z,40
2016-10-10T07:15:07.413Z,40
2016-10-10T07:16:17.700Z,45
2016-10-10T07:17:27.668Z,45
2016-10-10T07:18:37.945Z,45
2016-10-10T07:19:48.240Z,45
2016-10-10T07:20:58.221Z,45
2016-10-10T07:22:08.198Z,50
2016-10-10T07:23:18.167Z,50
2016-10-10T07:24:28.172Z,50
2016-10-10T07:25:38.153Z,50
2016-10-10T07:26:48.440Z,50
2016-10-10T07:27:58.447Z,50
2016-10-10T07:29:08.742Z,50
2016-10-10T07:30:18.716Z,50
2016-10-10T07:31:28.396Z,50
2016-10-10T07:32:38.678Z,50
2016-10-10T07:33:48.356Z,50
2016-10-10T07:34:58.343Z,55
2016-10-10T07:36:08.335Z,55
2016-10-10T07:37:18.360Z,55
2016-10-10T07:38:27.748Z,60
2016-10-10T07:39:37.722Z,60
2016-10-10T07:40:48.012Z,65
2016-10-10T07:41:57.986Z,70
2016-10-10T07:43:08.008Z,70
2016-10-10T07:44:18.317Z,75
2016-10-10T07:45:28.310Z,80
2016-10-10T07:46:38.603Z,80
2016-10-10T07:47:48.807Z,80
2016-10-10T07:48:58.937Z,80
2016-10-10T07:50:09.225Z,80
2016-10-10T07:51:19.529Z,80
2016-10-10T07:52:29.836Z,85
2016-10-10T07:53:40.113Z,85
2016-10-10T07:54:50.400Z,90
2016-10-10T07:56:00.062Z,95
2016-10-10T07:57:09.743Z,100
2016-10-10T07:58:19.719Z,105
2016-10-10T07:59:29.409Z,105
2016-10-10T08:00:39.693Z,105
2016-10-10T08:01:50.020Z,105
2016-10-10T08:03:00.303Z,105
2016-10-10T08:04:10.598Z,100
2016-10-10T08:05:20.570Z,95
2016-10-10T08:06:30.882Z,85
2016-10-10T08:07:40.868Z,80
2016-10-10T08:08:50.855Z,80
2016-10-10T08:10:01.157Z,80
2016-10-10T08:11:11.464Z,80
2016-10-10T08:12:21.446Z,80
2016-10-10T08:13:31.426Z,80
2016-10-10T08:14:41.409Z,75
2016-10-10T08:15:51.382Z,65
2016-10-10T08:17:01.348Z,60
2016-10-10T08:18:11.647Z,60
2016-10-10T08:19:21.929Z,55
2016-10-10T08:20:31.612Z,55
2016-10-10T08:21:41.943Z,55
2016-10-10T08:22:51.935Z,60
2016-10-10T08:24:02.219Z,65
2016-10-10T08:25:12.509Z,65
2016-10-10T08:26:22.505Z,70
2016-10-10T08:27:32.802Z,75
2016-10-10T08:28:42.463Z,80
2016-10-10T08:29:52.748Z,85
2016-10-10T08:31:03.039Z,90
2016-10-10T08:32:12.710Z,100
2016-10-10T08:33:22.701Z,105
2016-10-10T08:34:32.987Z,115
2016-10-10T08:35:43.280Z,120
2016-10-10T08:36:53.601Z,120
2016-10-10T08:38:03.586Z,130
2016-10-10T08:39:13.258Z,140
2016-10-10T08:40:23.551Z,150
2016-10-10T08:41:33.841Z,155
2016-10-10T08:42:44.144Z,155
2016-10-10T08:43:54.135Z,155
2016-10-10T08:45:04.118Z,155
2016-10-10T08:46:13.790Z,155
2016-10-10T08:47:23.773Z,155
2016-10-10T08:48:33.775Z,160
2016-10-10T08:49:44.076Z,160
2016-10-10T08:50:54.057Z,160
2016-10-10T08:52:04.341Z,160
2016-10-10T08:53:14.644Z,160
2016-10-10T08:54:24.628Z,160
2016-10-10T08:55:34.932Z,160
2016-10-10T08:56:45.256Z,155
2016-10-10T08:57:55.258Z,155
2016-10-10T08:59:05.243Z,160
2016-10-10T09:00:15.559Z,165
2016-10-10T09:01:25.552Z,165
2016-10-10T09:02:35.234Z,175
2016-10-10T09:03:45.209Z,180
2016-10-10T09:04:54.601Z,190
2016-10-10T09:06:04.584Z,195
2016-10-10T09:07:14.260Z,195
2016-10-10T09:08:24.557Z,200
2016-10-10T09:09:34.959Z,205
2016-10-10T09:10:44.657Z,205
2016-10-10T09:11:54.631Z,205
2016-10-10T09:13:04.630Z,205
2016-10-10T09:14:14.926Z,210
2016-10-10T09:15:25.236Z,205
2016-10-10T09:16:35.530Z,205
2016-10-10T09:17:45.827Z,210
2016-10-10T09:18:56.120Z,205
2016-10-10T09:20:06.099Z,205
2016-10-10T09:21:15.770Z,205
2016-10-10T09:22:26.053Z,205
2016-10-10T09:23:36.370Z,205
2016-10-10T09:24:46.670Z,205
2016-10-10T09:25:56.661Z,205
2016-10-10T09:27:06.343Z,205
2016-10-10T09:28:16.318Z,205
2016-10-10T09:29:26.614Z,205
2016-10-10T09:30:36.901Z,210
2016-10-10T09:31:46.891Z,210
2016-10-10T09:32:57.184Z,215
2016-10-10T09:34:07.159Z,215
2016-10-10T09:35:16.826Z,220
2016-10-10T09:36:26.816Z,220
2016-10-10T09:37:37.139Z,225
2016-10-10T09:38:47.458Z,225
2016-10-10T09:39:57.464Z,225
2016-10-10T09:41:07.480Z,220
2016-10-10T09:42:17.468Z,220
2016-10-10T09:43:27.777Z,215
2016-10-10T09:44:38.074Z,205
2016-10-10T09:45:48.308Z,205
2016-10-10T09:46:58.613Z,205
2016-10-10T09:48:08.611Z,200
2016-10-10T09:49:18.587Z,195
2016-10-10T09:50:28.892Z,195
2016-10-10T09:51:38.871Z,200
2016-10-10T09:52:48.558Z,200
2016-10-10T09:53:58.554Z,200
2016-10-10T09:55:08.548Z,200
2016-10-10T09:56:18.536Z,200
2016-10-10T09:57:28.243Z,190
2016-10-10T09:58:38.259Z,195
2016-10-10T09:59:48.551Z,205
2016-10-10T10:00:58.859Z,200
2016-10-10T10:02:08.862Z,200
2016-10-10T10:03:18.853Z,195
2016-10-10T10:04:29.167Z,195
2016-10-10T10:05:39.465Z,200
2016-10-10T10:06:49.781Z,200
2016-10-10T10:08:00.095Z,205
2016-10-10T10:09:10.394Z,215
2016-10-10T10:10:20.705Z,230
2016-10-10T10:11:30.704Z,235
2016-10-10T10:12:41.023Z,240
2016-10-10T10:13:51.335Z,250
2016-10-10T10:15:01.622Z,250
2016-10-10T10:16:11.622Z,285
2016-10-10T10:17:21.936Z,270
2016-10-10T10:18:31.947Z,255
2016-10-10T10:19:41.933Z,255
2016-10-10T10:20:52.241Z,255
2016-10-10T10:22:02.528Z,245
2016-10-10T10:23:12.520Z,230
2016-10-10T10:24:22.816Z,220
2016-10-10T10:25:33.126Z,210
2016-10-10T10:26:43.423Z,210
2016-10-10T10:27:53.427Z,235
2016-10-10T10:29:03.723Z,220
2016-10-10T10:30:14.025Z,205
2016-10-10T10:31:23.699Z,200
2016-10-10T10:32:33.706Z,225
2016-10-10T10:33:43.697Z,245
2016-10-10T10:34:54.002Z,260
2016-10-10T10:36:04.316Z,275
2016-10-10T10:37:14.616Z,275
2016-10-10T10:38:24.965Z,255
2016-10-10T10:39:35.271Z,245
2016-10-10T10:40:45.574Z,205
2016-10-10T10:41:55.905Z,190
2016-10-10T10:43:06.217Z,185
2016-10-10T10:44:16.530Z,180
2016-10-10T10:45:26.828Z,175
2016-10-10T10:46:36.818Z,185
2016-10-10T10:47:47.110Z,185
2016-10-10T10:48:57.106Z,195
2016-10-10T10:50:07.416Z,180
2016-10-10T10:51:17.399Z,155
2016-10-10T10:52:27.686Z,140
2016-10-10T10:53:38.030Z,140
2016-10-10T10:54:48.329Z,150
2016-10-10T10:55:58.635Z,170
2016-10-10T10:57:08.681Z,175
2016-10-10T10:58:18.672Z,185
2016-10-10T10:59:28.989Z,195
2016-10-10T11:00:39.289Z,195
2016-10-10T11:01:49.587Z,190
2016-10-10T11:02:59.296Z,195
2016-10-10T11:04:09.616Z,190
2016-10-10T11:05:19.625Z,185
2016-10-10T11:06:29.326Z,160
2016-10-10T11:07:39.624Z,140
2016-10-10T11:08:49.611Z,135
2016-10-10T11:09:59.925Z,135
2016-10-10T11:11:10.222Z,135
2016-10-10T11:12:20.539Z,150
2016-10-10T11:13:30.524Z,155
2016-10-10T11:14:40.549Z,150
2016-10-10T11:15:50.877Z,140
2016-10-10T11:17:01.171Z,115
2016-10-10T11:18:11.466Z,95
2016-10-10T11:19:21.474Z,95
2016-10-10T11:20:31.780Z,115
2016-10-10T11:21:45.583Z,135
2016-10-10T11:22:59.987Z,140
2016-10-10T11:24:10.800Z,145
2016-10-10T11:25:21.107Z,150
2016-10-10T11:26:33.762Z,160
2016-10-10T11:27:47.927Z,160
2016-10-10T11:29:02.097Z,175
2016-10-10T11:30:15.848Z,185
2016-10-10T11:31:29.652Z,210
2016-10-10T11:32:43.002Z,220
2016-10-10T11:33:56.979Z,225
2016-10-10T11:35:10.586Z,230
2016-10-10T11:36:21.499Z,240
2016-10-10T11:37:31.846Z,255
2016-10-10T11:38:44.639Z,265
2016-10-10T11:39:57.596Z,270
2016-10-10T11:41:11.407Z,270
2016-10-10T11:42:24.408Z,270
2016-10-10T11:43:37.715Z,260
2016-10-10T11:44:50.949Z,250
2016-10-10T11:46:03.446Z,230
2016-10-10T11:47:16.556Z,205
2016-10-10T11:48:30.710Z,195
2016-10-10T11:49:44.139Z,195
2016-10-10T11:50:57.705Z,190
2016-10-10T11:52:11.769Z,170
2016-10-10T11:53:25.231Z,150
2016-10-10T11:54:38.074Z,140
2016-10-10T11:55:51.969Z,135
2016-10-10T11:57:06.182Z,130
2016-10-10T11:58:20.506Z,130
2016-10-10T11:59:35.007Z,135
2016-10-10T12:00:49.441Z,135
2016-10-10T12:02:03.697Z,125
2016-10-10T12:03:18.464Z,115
2016-10-10T12:04:33.635Z,100
2016-10-10T12:05:47.577Z,95
2016-10-10T12:07:01.770Z,95
2016-10-10T12:08:15.884Z,100
2016-10-10T12:09:30.189Z,110
2016-10-10T12:10:45.016Z,120
2016-10-10T12:11:59.766Z,115
2016-10-10T12:13:14.285Z,120
2016-10-10T12:14:29.470Z,125
2016-10-10T12:15:42.970Z,125
2016-10-10T12:16:56.450Z,135
2016-10-10T12:18:11.227Z,145
2016-10-10T12:19:26.233Z,160
2016-10-10T12:20:38.995Z,165
2016-10-10T12:21:53.171Z,160
2016-10-10T12:23:07.394Z,150
2016-10-10T12:24:21.484Z,145
2016-10-10T12:25:35.796Z,150
2016-10-10T12:26:49.488Z,155
2016-10-10T12:28:04.378Z,160
2016-10-10T12:29:17.621Z,160
2016-10-10T12:30:31.327Z,170
2016-10-10T12:31:45.789Z,180
2016-10-10T12:32:59.219Z,190
2016-10-10T12:34:13.661Z,195
2016-10-10T12:35:28.762Z,200
2016-10-10T12:36:42.900Z,210
2016-10-10T12:37:57.913Z,200
2016-10-10T12:39:11.742Z,205
2016-10-10T12:40:25.947Z,210
2016-10-10T12:41:39.553Z,215
2016-10-10T12:42:53.953Z,215
2016-10-10T12:44:08.172Z,215
2016-10-10T12:45:22.261Z,215
2016-10-10T12:46:36.209Z,220
2016-10-10T12:47:50.114Z,245
2016-10-10T12:49:03.387Z,220
2016-10-10T12:50:17.631Z,215
2016-10-10T12:51:31.620Z,200
2016-10-10T12:52:44.704Z,200
2016-10-10T12:53:59.637Z,180
2016-10-10T12:55:13.612Z,170
2016-10-10T12:56:27.470Z,165
2016-10-10T12:57:41.296Z,160
2016-10-10T12:58:55.233Z,155
2016-10-10T13:00:09.600Z,155
2016-10-10T13:01:20.466Z,150
2016-10-10T13:02:30.461Z,145
2016-10-10T13:03:40.765Z,145
2016-10-10T13:04:51.211Z,145
2016-10-10T13:06:01.577Z,140
2016-10-10T13:07:11.269Z,140
2016-10-10T13:08:21.270Z,145
2016-10-10T13:09:31.276Z,145
2016-10-10T13:10:41.593Z,140
2016-10-10T13:11:52.304Z,140
2016-10-10T13:13:02.001Z,130
2016-10-10T13:14:12.030Z,125
2016-10-10T13:15:22.046Z,130
2016-10-10T13:16:32.052Z,135
2016-10-10T13:17:42.359Z,140
2016-10-10T13:18:52.670Z,140
2016-10-10T13:20:02.682Z,145
2016-10-10T13:21:12.992Z,135
2016-10-10T13:22:22.675Z,135
2016-10-10T13:23:32.990Z,125
2016-10-10T13:24:43.320Z,130
2016-10-10T13:25:53.621Z,125
2016-10-10T13:27:03.622Z,125
2016-10-10T13:28:13.612Z,120
2016-10-10T13:29:23.603Z,120
2016-10-10T13:30:33.920Z,120
2016-10-10T13:31:43.921Z,115
2016-10-10T13:32:53.621Z,110
2016-10-10T13:34:03.611Z,105
2016-10-10T13:35:13.924Z,105
2016-10-10T13:36:24.247Z,105
2016-10-10T13:37:34.229Z,110
2016-10-10T13:38:43.925Z,115
2016-10-10T13:39:53.956Z,120
2016-10-10T13:41:04.387Z,125
2016-10-10T13:42:14.404Z,130
2016-10-10T13:43:24.628Z,130
2016-10-10T13:44:34.965Z,140
2016-10-10T13:45:44.987Z,150
2016-10-10T13:46:55.527Z,155
2016-10-10T13:48:05.823Z,170
2016-10-10T13:49:15.812Z,165
2016-10-10T13:50:26.108Z,165
2016-10-10T13:51:35.798Z,160
2016-10-10T13:52:46.100Z,165
2016-10-10T13:53:56.099Z,175
2016-10-10T13:55:05.784Z,165
2016-10-10T13:56:15.770Z,160
2016-10-10T13:57:26.079Z,160
2016-10-10T13:58:36.384Z,160
2016-10-10T13:59:46.383Z,160
2016-10-10T14:00:56.374Z,155
2016-10-10T14:02:06.383Z,155
2016-10-10T14:03:16.357Z,150
2016-10-10T14:04:26.684Z,155
2016-10-10T14:05:36.677Z,160
2016-10-10T14:06:46.975Z,160
2016-10-10T14:07:57.285Z,165
2016-10-10T14:09:07.312Z,180
2016-10-10T14:10:17.568Z,215
2016-10-10T14:11:27.899Z,210
2016-10-10T14:12:37.915Z,155
2016-10-10T14:13:48.212Z,150
2016-10-10T14:14:58.213Z,145
2016-10-10T14:16:08.525Z,140
2016-10-10T14:17:18.524Z,140
2016-10-10T14:18:29.049Z,135
2016-10-10T14:19:39.027Z,130
2016-10-10T14:20:49.117Z,125
2016-10-10T14:21:59.128Z,115
2016-10-10T14:23:08.833Z,115
2016-10-10T14:24:19.145Z,110
2016-10-10T14:25:29.583Z,100
2016-10-10T14:26:39.909Z,95
2016-10-10T14:27:50.186Z,90
2016-10-10T14:28:59.875Z,90
2016-10-10T14:30:10.169Z,90
2016-10-10T14:31:19.858Z,85
2016-10-10T14:32:29.540Z,80
2016-10-10T14:33:39.553Z,80
2016-10-10T14:34:49.848Z,75
2016-10-10T14:35:59.843Z,75
2016-10-10T14:37:10.143Z,70
2016-10-10T14:38:20.144Z,70
2016-10-10T14:39:30.119Z,70
2016-10-10T14:40:40.122Z,70
2016-10-10T14:41:50.111Z,70
2016-10-10T14:43:00.137Z,65
2016-10-10T14:44:10.447Z,65
2016-10-10T14:45:20.780Z,65
2016-10-10T14:46:31.082Z,65
2016-10-10T14:47:41.397Z,60
2016-10-10T14:48:51.717Z,60
2016-10-10T14:50:02.048Z,60
2016-10-10T14:51:12.027Z,60
2016-10-10T14:52:21.709Z,60
2016-10-10T14:53:32.011Z,60
2016-10-10T14:54:41.989Z,60
2016-10-10T14:55:51.680Z,60
2016-10-10T14:57:01.988Z,55
2016-10-10T14:58:11.984Z,55
2016-10-10T14:59:22.306Z,55
2016-10-10T15:00:32.852Z,50
2016-10-10T15:01:43.151Z,50
2016-10-10T15:02:53.145Z,45
2016-10-10T15:04:03.156Z,40
2016-10-10T15:05:13.449Z,35
2016-10-10T15:06:23.463Z,35
2016-10-10T15:07:33.449Z,35
2016-10-10T15:08:43.441Z,30
2016-10-10T15:09:53.130Z,30
2016-10-10T15:11:03.154Z,25
2016-10-10T15:12:13.160Z,25
2016-10-10T15:13:23.480Z,25
2016-10-10T15:14:33.785Z,25
2016-10-10T15:15:43.781Z,20
2016-10-10T15:16:54.081Z,20
2016-10-10T15:18:04.066Z,20
2016-10-10T15:19:14.370Z,20
2016-10-10T15:20:23.755Z,20
2016-10-10T15:21:33.763Z,20
2016-10-10T15:22:44.090Z,20
2016-10-10T15:23:54.097Z,15
2016-10-10T15:25:04.382Z,15
2016-10-10T15:26:14.676Z,15
2016-10-10T15:27:24.681Z,15
2016-10-10T15:28:35.009Z,15
2016-10-10T15:29:45.322Z,15
2016-10-10T15:30:55.619Z,15
2016-10-10T15:32:05.933Z,15
2016-10-10T15:33:16.248Z,15
2016-10-10T15:34:26.256Z,15
2016-10-10T15:35:36.551Z,15
2016-10-10T15:36:46.876Z,10
2016-10-10T15:37:57.163Z,10
2016-10-10T15:39:07.475Z,10
2016-10-10T15:40:17.786Z,10
2016-10-10T15:41:28.081Z,10
2016-10-10T15:42:38.104Z,10
2016-10-10T15:43:48.429Z,10
2016-10-10T15:44:58.718Z,10
2016-10-10T15:46:09.021Z,10
2016-10-10T15:47:19.341Z,10
2016-10-10T15:48:29.653Z,10
2016-10-10T15:49:39.664Z,10
2016-10-10T15:50:49.975Z,10
2016-10-10T15:51:59.958Z,10
2016-10-10T15:53:10.259Z,10
2016-10-10T15:54:20.560Z,5
2016-10-10T15:55:30.561Z,5
2016-10-10T15:56:40.857Z,5
2016-10-10T15:57:50.855Z,5
2016-10-10T15:59:01.136Z,5
2016-10-10T16:00:11.122Z,5
2016-10-10T16:01:21.423Z,5
2016-10-10T16:02:31.721Z,5
2016-10-10T16:03:41.689Z,0
2016-10-10T16:04:51.355Z,0
2016-10-10T16:06:01.339Z,0
2016-10-10T16:07:11.635Z,0
2016-10-10T16:08:21.924Z,0
2016-10-10T16:09:32.219Z,0
2016-10-10T16:10:42.515Z,0
2016-10-10T16:11:52.496Z,0
2016-10-10T16:13:02.796Z,0
2016-10-10T16:14:13.089Z,0
2016-10-10T16:15:23.427Z,0
2016-10-10T16:16:33.419Z,0
2016-10-10T16:17:43.403Z,0
2016-10-10T16:18:53.729Z,0
2016-10-10T16:20:03.721Z,0
2016-10-10T16:21:14.036Z,0
2016-10-10T16:22:24.330Z,0
2016-10-10T16:23:34.318Z,0
2016-10-10T16:24:44.613Z,0
2016-10-10T16:25:54.616Z,0
2016-10-10T16:27:04.918Z,0
2016-10-10T16:28:14.923Z,0
2016-10-10T16:29:25.230Z,0
2016-10-10T16:30:34.919Z,0
2016-10-10T16:31:45.229Z,0
2016-10-10T16:32:55.216Z,0
2016-10-10T16:34:05.219Z,0
2016-10-10T16:35:15.236Z,0
2016-10-10T16:36:25.222Z,0
2016-10-10T16:37:35.522Z,0
2016-10-10T16:38:45.222Z,0
2016-10-10T16:39:54.651Z,0
2016-10-10T16:41:04.635Z,0
2016-10-10T16:42:14.619Z,0
2016-10-10T16:43:24.310Z,0
2016-10-10T16:44:34.643Z,0
2016-10-10T16:45:44.638Z,0
2016-10-10T16:46:54.651Z,0
2016-10-10T16:48:04.673Z,0
2016-10-10T16:49:14.697Z,0
2016-10-10T16:50:24.696Z,0
2016-10-10T16:51:35.018Z,0
2016-10-10T16:52:45.325Z,0
2016-10-10T16:53:55.312Z,0
2016-10-10T16:55:05.314Z,0
2016-10-10T16:56:15.324Z,0
2016-10-10T16:57:25.331Z,0
2016-10-10T16:58:35.623Z,0
2016-10-10T16:59:45.670Z,0
2016-10-10T17:00:55.983Z,0
2016-10-10T17:02:06.010Z,0
2016-10-10T17:03:16.326Z,0
2016-10-10T17:04:26.632Z,0
2016-10-10T17:05:36.629Z,0
2016-10-10T17:06:46.053Z,0
2016-10-10T17:07:56.383Z,0
2016-10-10T17:09:06.102Z,0
2016-10-10T17:10:16.126Z,0
2016-10-10T17:11:26.439Z,0
2016-10-10T17:12:36.778Z,0
2016-10-10T17:13:46.775Z,0
2016-10-10T17:14:57.077Z,0
2016-10-10T17:16:07.388Z,0